sensor_id;sensor_type;location;lat;lon;timestamp;pressure;altitude;pressure_sealevel;temperature;humidity
63493;BME280;49638;47.526;10.028;2023-07-20T00:00:32;91696.31;;;19.58;61.87
63493;BME280;49638;47.526;10.028;2023-07-20T00:03:33;91688.25;;;19.58;62.58
63493;BME280;49638;47.526;10.028;2023-07-20T00:06:33;91672.88;;;19.50;61.63
63493;BME280;49638;47.526;10.028;2023-07-20T00:09:33;91680.63;;;19.51;61.17
63493;BME280;49638;47.526;10.028;2023-07-20T00:12:34;91687.56;;;19.52;61.31
63493;BME280;49638;47.526;10.028;2023-07-20T00:15:34;91685.78;;;19.48;61.40
63493;BME280;49638;47.526;10.028;2023-07-20T00:18:34;91689.06;;;19.45;61.15
63493;BME280;49638;47.526;10.028;2023-07-20T00:21:34;91685.59;;;19.44;60.96
63493;BME280;49638;47.526;10.028;2023-07-20T00:24:35;91675.84;;;19.34;60.95
63493;BME280;49638;47.526;10.028;2023-07-20T00:27:35;91669.19;;;19.32;61.01
63493;BME280;49638;47.526;10.028;2023-07-20T00:30:37;91676.44;;;19.31;61.05
63493;BME280;49638;47.526;10.028;2023-07-20T00:33:38;91676.44;;;19.31;61.19
63493;BME280;49638;47.526;10.028;2023-07-20T00:36:38;91672.97;;;19.31;61.68
63493;BME280;49638;47.526;10.028;2023-07-20T00:39:38;91672.47;;;19.29;61.71
63493;BME280;49638;47.526;10.028;2023-07-20T00:42:39;91671.19;;;19.26;62.10
63493;BME280;49638;47.526;10.028;2023-07-20T00:45:39;91680.41;;;19.20;62.63
63493;BME280;49638;47.526;10.028;2023-07-20T00:48:41;91672.97;;;19.17;62.56
63493;BME280;49638;47.526;10.028;2023-07-20T00:51:42;91670.78;;;19.19;62.70
63493;BME280;49638;47.526;10.028;2023-07-20T00:54:43;91675.91;;;19.15;62.87
63493;BME280;49638;47.526;10.028;2023-07-20T00:57:44;91671.97;;;19.13;62.90
63493;BME280;49638;47.526;10.028;2023-07-20T01:00:44;91673.88;;;19.12;63.04
63493;BME280;49638;47.526;10.028;2023-07-20T01:03:45;91669.56;;;19.11;63.20
63493;BME280;49638;47.526;10.028;2023-07-20T01:06:54;91679.03;;;19.09;62.25
63493;BME280;49638;47.526;10.028;2023-07-20T01:10:06;91661.25;;;18.99;62.38
63493;BME280;49638;47.526;10.028;2023-07-20T01:13:13;91663.41;;;18.97;63.04
63493;BME280;49638;47.526;10.028;2023-07-20T01:16:14;91672.03;;;18.94;63.05
63493;BME280;49638;47.526;10.028;2023-07-20T01:19:14;91679.47;;;18.97;62.93
63493;BME280;49638;47.526;10.028;2023-07-20T01:31:57;91661.22;;;18.85;63.34
63493;BME280;49638;47.526;10.028;2023-07-20T01:34:58;91670.84;;;18.86;63.32
63493;BME280;49638;47.526;10.028;2023-07-20T01:38:00;91661.28;;;18.80;63.59
63493;BME280;49638;47.526;10.028;2023-07-20T01:41:01;91659.50;;;18.76;63.15
63493;BME280;49638;47.526;10.028;2023-07-20T01:44:03;91661.75;;;18.68;63.15
63493;BME280;49638;47.526;10.028;2023-07-20T01:47:04;91660.13;;;18.67;64.01
63493;BME280;49638;47.526;10.028;2023-07-20T01:50:05;91661.03;;;18.63;64.07
63493;BME280;49638;47.526;10.028;2023-07-20T01:53:06;91656.25;;;18.60;64.25
63493;BME280;49638;47.526;10.028;2023-07-20T01:56:06;91653.06;;;18.58;64.47
63493;BME280;49638;47.526;10.028;2023-07-20T01:59:06;91662.75;;;18.54;65.01
63493;BME280;49638;47.526;10.028;2023-07-20T02:02:07;91661.78;;;18.50;65.16
63493;BME280;49638;47.526;10.028;2023-07-20T02:05:08;91669.28;;;18.48;64.45
63493;BME280;49638;47.526;10.028;2023-07-20T02:08:08;91668.28;;;18.43;64.23
63493;BME280;49638;47.526;10.028;2023-07-20T02:11:09;91670.47;;;18.41;64.04
63493;BME280;49638;47.526;10.028;2023-07-20T02:14:10;91662.72;;;18.40;63.79
63493;BME280;49638;47.526;10.028;2023-07-20T02:17:10;91665.19;;;18.36;63.77
63493;BME280;49638;47.526;10.028;2023-07-20T02:20:11;91682.34;;;18.35;64.17
63493;BME280;49638;47.526;10.028;2023-07-20T02:23:11;91668.81;;;18.27;63.89
63493;BME280;49638;47.526;10.028;2023-07-20T02:26:11;91671.69;;;18.30;64.40
63493;BME280;49638;47.526;10.028;2023-07-20T02:29:12;91669.13;;;18.25;64.54
63493;BME280;49638;47.526;10.028;2023-07-20T02:32:12;91665.44;;;18.21;65.45
63493;BME280;49638;47.526;10.028;2023-07-20T02:35:12;91688.47;;;18.17;66.06
63493;BME280;49638;47.526;10.028;2023-07-20T02:38:12;91694.69;;;18.12;66.56
63493;BME280;49638;47.526;10.028;2023-07-20T02:41:13;91658.19;;;18.03;66.99
63493;BME280;49638;47.526;10.028;2023-07-20T02:44:14;91666.88;;;17.94;67.10
63493;BME280;49638;47.526;10.028;2023-07-20T02:47:14;91678.66;;;17.93;67.13
63493;BME280;49638;47.526;10.028;2023-07-20T02:50:14;91677.94;;;17.88;67.58
63493;BME280;49638;47.526;10.028;2023-07-20T02:53:15;91682.84;;;17.81;68.35
63493;BME280;49638;47.526;10.028;2023-07-20T02:56:15;91666.59;;;17.72;68.32
63493;BME280;49638;47.526;10.028;2023-07-20T02:59:15;91672.09;;;17.62;68.64
63493;BME280;49638;47.526;10.028;2023-07-20T03:02:16;91659.38;;;17.54;69.24
63493;BME280;49638;47.526;10.028;2023-07-20T03:05:16;91671.38;;;17.56;69.19
63493;BME280;49638;47.526;10.028;2023-07-20T03:08:16;91682.41;;;17.49;69.42
63493;BME280;49638;47.526;10.028;2023-07-20T03:11:18;91668.06;;;17.40;69.44
63493;BME280;49638;47.526;10.028;2023-07-20T03:14:18;91677.41;;;17.43;69.64
63493;BME280;49638;47.526;10.028;2023-07-20T03:17:19;91683.59;;;17.38;69.37
63493;BME280;49638;47.526;10.028;2023-07-20T03:20:20;91691.03;;;17.41;69.28
63493;BME280;49638;47.526;10.028;2023-07-20T03:23:20;91688.66;;;17.40;69.80
63493;BME280;49638;47.526;10.028;2023-07-20T03:26:21;91691.81;;;17.42;69.69
63493;BME280;49638;47.526;10.028;2023-07-20T03:29:21;91676.66;;;17.37;69.66
63493;BME280;49638;47.526;10.028;2023-07-20T03:32:21;91688.44;;;17.36;70.00
63493;BME280;49638;47.526;10.028;2023-07-20T03:35:21;91696.66;;;17.40;70.47
63493;BME280;49638;47.526;10.028;2023-07-20T03:38:22;91697.25;;;17.37;70.36
63493;BME280;49638;47.526;10.028;2023-07-20T03:41:23;91694.56;;;17.37;70.80
63493;BME280;49638;47.526;10.028;2023-07-20T03:44:23;91701.22;;;17.39;70.37
63493;BME280;49638;47.526;10.028;2023-07-20T03:47:23;91711.63;;;17.41;70.25
63493;BME280;49638;47.526;10.028;2023-07-20T03:50:24;91711.94;;;17.34;70.57
63493;BME280;49638;47.526;10.028;2023-07-20T03:53:24;91708.75;;;17.32;70.94
63493;BME280;49638;47.526;10.028;2023-07-20T03:56:24;91704.81;;;17.30;71.30
63493;BME280;49638;47.526;10.028;2023-07-20T03:59:25;91711.72;;;17.31;71.42
63493;BME280;49638;47.526;10.028;2023-07-20T04:02:25;91716.84;;;17.27;71.84
63493;BME280;49638;47.526;10.028;2023-07-20T04:05:25;91720.88;;;17.24;72.13
63493;BME280;49638;47.526;10.028;2023-07-20T04:08:26;91725.47;;;17.19;72.68
63493;BME280;49638;47.526;10.028;2023-07-20T04:11:26;91712.97;;;17.14;73.05
63493;BME280;49638;47.526;10.028;2023-07-20T04:14:26;91720.75;;;17.11;73.54
63493;BME280;49638;47.526;10.028;2023-07-20T04:17:27;91730.41;;;17.07;74.26
63493;BME280;49638;47.526;10.028;2023-07-20T04:20:27;91724.53;;;17.05;74.18
63493;BME280;49638;47.526;10.028;2023-07-20T04:23:27;91729.88;;;17.05;74.09
63493;BME280;49638;47.526;10.028;2023-07-20T04:26:27;91722.47;;;16.96;74.53
63493;BME280;49638;47.526;10.028;2023-07-20T04:29:28;91721.47;;;16.92;75.04
63493;BME280;49638;47.526;10.028;2023-07-20T04:32:28;91709.78;;;16.83;75.52
63493;BME280;49638;47.526;10.028;2023-07-20T04:35:49;91718.31;;;16.85;77.69
63493;BME280;49638;47.526;10.028;2023-07-20T04:38:49;91719.38;;;16.84;75.66
63493;BME280;49638;47.526;10.028;2023-07-20T04:41:50;91719.44;;;16.79;75.96
63493;BME280;49638;47.526;10.028;2023-07-20T04:44:50;91731.19;;;16.78;76.32
63493;BME280;49638;47.526;10.028;2023-07-20T04:47:50;91720.00;;;16.76;76.17
63493;BME280;49638;47.526;10.028;2023-07-20T04:50:51;91730.84;;;16.85;76.41
63493;BME280;49638;47.526;10.028;2023-07-20T04:53:51;91744.16;;;16.90;76.50
63493;BME280;49638;47.526;10.028;2023-07-20T04:56:52;91748.97;;;16.88;76.34
63493;BME280;49638;47.526;10.028;2023-07-20T04:59:52;91748.97;;;16.88;76.42
63493;BME280;49638;47.526;10.028;2023-07-20T05:02:52;91750.06;;;16.87;75.55
63493;BME280;49638;47.526;10.028;2023-07-20T05:05:52;91739.16;;;16.83;75.72
63493;BME280;49638;47.526;10.028;2023-07-20T05:08:53;91735.13;;;16.86;75.44
63493;BME280;49638;47.526;10.028;2023-07-20T05:11:53;91728.72;;;16.87;75.55
63493;BME280;49638;47.526;10.028;2023-07-20T05:14:53;91738.28;;;16.88;75.73
63493;BME280;49638;47.526;10.028;2023-07-20T05:17:53;91726.81;;;16.92;75.71
63493;BME280;49638;47.526;10.028;2023-07-20T05:20:54;91724.63;;;16.94;75.98
63493;BME280;49638;47.526;10.028;2023-07-20T05:23:55;91729.72;;;16.91;76.00
63493;BME280;49638;47.526;10.028;2023-07-20T05:26:55;91722.81;;;16.90;76.36
63493;BME280;49638;47.526;10.028;2023-07-20T05:29:55;91740.41;;;16.91;76.80
63493;BME280;49638;47.526;10.028;2023-07-20T05:32:55;91743.38;;;16.89;77.13
63493;BME280;49638;47.526;10.028;2023-07-20T05:35:56;91748.75;;;16.84;76.97
63493;BME280;49638;47.526;10.028;2023-07-20T05:38:56;91742.38;;;16.80;77.31
63493;BME280;49638;47.526;10.028;2023-07-20T05:41:56;91743.16;;;16.81;77.18
63493;BME280;49638;47.526;10.028;2023-07-20T05:44:57;91731.75;;;16.75;77.55
63493;BME280;49638;47.526;10.028;2023-07-20T05:47:57;91744.03;;;16.76;77.61
63493;BME280;49638;47.526;10.028;2023-07-20T05:50:57;91743.47;;;16.79;77.02
63493;BME280;49638;47.526;10.028;2023-07-20T05:53:57;91744.53;;;16.78;76.64
63493;BME280;49638;47.526;10.028;2023-07-20T05:56:57;91733.88;;;16.73;76.33
63493;BME280;49638;47.526;10.028;2023-07-20T05:59:58;91735.22;;;16.75;76.28
63493;BME280;49638;47.526;10.028;2023-07-20T06:02:58;91737.34;;;16.78;76.48
63493;BME280;49638;47.526;10.028;2023-07-20T06:06:02;91740.72;;;16.84;77.00
63493;BME280;49638;47.526;10.028;2023-07-20T06:09:02;91733.72;;;16.93;76.08
63493;BME280;49638;47.526;10.028;2023-07-20T06:12:09;91736.84;;;17.00;75.58
63493;BME280;49638;47.526;10.028;2023-07-20T06:15:27;91726.47;;;16.99;74.83
63493;BME280;49638;47.526;10.028;2023-07-20T06:18:28;91726.94;;;17.06;74.83
63493;BME280;49638;47.526;10.028;2023-07-20T06:21:28;91736.66;;;17.21;75.02
63493;BME280;49638;47.526;10.028;2023-07-20T06:24:28;91736.41;;;17.22;74.27
63493;BME280;49638;47.526;10.028;2023-07-20T06:27:29;91739.56;;;17.24;73.79
63493;BME280;49638;47.526;10.028;2023-07-20T06:30:29;91739.28;;;17.26;73.09
63493;BME280;49638;47.526;10.028;2023-07-20T06:33:29;91743.31;;;17.23;73.00
63493;BME280;49638;47.526;10.028;2023-07-20T06:36:30;91735.34;;;17.18;72.32
63493;BME280;49638;47.526;10.028;2023-07-20T06:39:30;91727.34;;;17.18;72.09
63493;BME280;49638;47.526;10.028;2023-07-20T06:42:30;91727.06;;;17.20;72.31
63493;BME280;49638;47.526;10.028;2023-07-20T06:45:31;91725.41;;;17.24;72.32
63493;BME280;49638;47.526;10.028;2023-07-20T06:48:31;91726.06;;;17.40;71.89
63493;BME280;49638;47.526;10.028;2023-07-20T06:51:31;91713.94;;;17.47;71.14
63493;BME280;49638;47.526;10.028;2023-07-20T06:54:32;91720.94;;;17.67;69.78
63493;BME280;49638;47.526;10.028;2023-07-20T06:57:32;91696.88;;;17.91;68.34
63493;BME280;49638;47.526;10.028;2023-07-20T07:00:32;91721.66;;;18.16;68.16
63493;BME280;49638;47.526;10.028;2023-07-20T07:03:33;91714.06;;;18.23;67.37
63493;BME280;49638;47.526;10.028;2023-07-20T07:06:34;91718.63;;;18.41;67.41
63493;BME280;49638;47.526;10.028;2023-07-20T07:09:35;91723.31;;;18.50;67.14
63493;BME280;49638;47.526;10.028;2023-07-20T07:12:35;91715.66;;;18.43;66.69
63493;BME280;49638;47.526;10.028;2023-07-20T07:15:36;91728.03;;;18.39;66.09
63493;BME280;49638;47.526;10.028;2023-07-20T07:18:36;91722.47;;;18.35;65.83
63493;BME280;49638;47.526;10.028;2023-07-20T07:21:36;91719.78;;;18.35;66.21
63493;BME280;49638;47.526;10.028;2023-07-20T07:24:36;91715.22;;;18.36;65.39
63493;BME280;49638;47.526;10.028;2023-07-20T07:27:37;91725.06;;;18.40;65.58
63493;BME280;49638;47.526;10.028;2023-07-20T07:30:37;91722.47;;;18.35;64.92
63493;BME280;49638;47.526;10.028;2023-07-20T07:33:38;91725.72;;;18.32;65.15
63493;BME280;49638;47.526;10.028;2023-07-20T07:36:38;91714.00;;;18.28;64.77
63493;BME280;49638;47.526;10.028;2023-07-20T07:39:39;91725.72;;;18.32;64.64
63493;BME280;49638;47.526;10.028;2023-07-20T07:42:39;91722.97;;;18.37;64.18
63493;BME280;49638;47.526;10.028;2023-07-20T07:45:40;91728.47;;;18.46;64.41
63493;BME280;49638;47.526;10.028;2023-07-20T07:48:40;91720.44;;;18.46;64.12
63493;BME280;49638;47.526;10.028;2023-07-20T07:51:41;91720.66;;;18.50;64.43
63493;BME280;49638;47.526;10.028;2023-07-20T07:54:41;91716.88;;;18.51;64.12
63493;BME280;49638;47.526;10.028;2023-07-20T07:57:41;91711.38;;;18.61;64.00
63493;BME280;49638;47.526;10.028;2023-07-20T08:00:41;91714.75;;;18.66;64.02
63493;BME280;49638;47.526;10.028;2023-07-20T08:03:43;91726.84;;;18.64;63.97
63493;BME280;49638;47.526;10.028;2023-07-20T08:06:45;91723.97;;;18.60;64.12
63493;BME280;49638;47.526;10.028;2023-07-20T08:09:46;91728.09;;;18.53;63.81
63493;BME280;49638;47.526;10.028;2023-07-20T08:12:46;91720.84;;;18.53;64.20
63493;BME280;49638;47.526;10.028;2023-07-20T08:15:49;91720.38;;;18.51;63.00
63493;BME280;49638;47.526;10.028;2023-07-20T08:18:51;91719.47;;;18.56;64.48
63493;BME280;49638;47.526;10.028;2023-07-20T08:21:51;91719.97;;;18.58;64.16
63493;BME280;49638;47.526;10.028;2023-07-20T08:24:51;91724.84;;;18.56;64.29
63493;BME280;49638;47.526;10.028;2023-07-20T08:27:53;91721.22;;;18.47;63.82
63493;BME280;49638;47.526;10.028;2023-07-20T08:30:53;91732.13;;;18.50;64.24
63493;BME280;49638;47.526;10.028;2023-07-20T08:33:53;91724.91;;;18.51;64.48
63493;BME280;49638;47.526;10.028;2023-07-20T08:36:54;91728.63;;;18.55;64.55
63493;BME280;49638;47.526;10.028;2023-07-20T08:39:54;91734.19;;;18.58;64.93
63493;BME280;49638;47.526;10.028;2023-07-20T08:42:54;91733.28;;;18.63;64.47
63493;BME280;49638;47.526;10.028;2023-07-20T08:45:55;91725.69;;;18.70;64.26
63493;BME280;49638;47.526;10.028;2023-07-20T08:48:56;91722.16;;;18.75;64.10
63493;BME280;49638;47.526;10.028;2023-07-20T08:51:58;91727.06;;;18.86;63.78
63493;BME280;49638;47.526;10.028;2023-07-20T08:54:58;91726.97;;;18.91;63.52
63493;BME280;49638;47.526;10.028;2023-07-20T08:58:00;91726.50;;;19.03;63.04
63493;BME280;49638;47.526;10.028;2023-07-20T09:01:00;91722.88;;;19.13;62.97
63493;BME280;49638;47.526;10.028;2023-07-20T09:04:02;91722.09;;;19.26;62.75
63493;BME280;49638;47.526;10.028;2023-07-20T09:07:03;91721.72;;;19.47;62.67
63493;BME280;49638;47.526;10.028;2023-07-20T09:10:03;91714.91;;;19.68;62.43
63493;BME280;49638;47.526;10.028;2023-07-20T09:13:06;91704.69;;;19.84;62.54
63493;BME280;49638;47.526;10.028;2023-07-20T09:16:06;91708.31;;;20.02;62.07
63493;BME280;49638;47.526;10.028;2023-07-20T09:19:06;91695.78;;;20.11;61.60
63493;BME280;49638;47.526;10.028;2023-07-20T09:22:07;91704.47;;;20.30;61.66
63493;BME280;49638;47.526;10.028;2023-07-20T09:25:15;91689.75;;;20.42;59.18
63493;BME280;49638;47.526;10.028;2023-07-20T09:28:15;91687.94;;;20.51;61.01
63493;BME280;49638;47.526;10.028;2023-07-20T09:31:17;91693.38;;;20.60;60.82
63493;BME280;49638;47.526;10.028;2023-07-20T09:34:19;91681.84;;;20.59;60.24
63493;BME280;49638;47.526;10.028;2023-07-20T09:37:20;91690.00;;;20.54;60.34
63493;BME280;49638;47.526;10.028;2023-07-20T09:40:22;91682.66;;;20.46;60.54
63493;BME280;49638;47.526;10.028;2023-07-20T09:43:22;91684.97;;;20.39;60.55
63493;BME280;49638;47.526;10.028;2023-07-20T09:46:22;91686.19;;;20.32;60.26
63493;BME280;49638;47.526;10.028;2023-07-20T09:49:23;91672.59;;;20.29;60.88
63493;BME280;49638;47.526;10.028;2023-07-20T09:52:24;91667.31;;;20.24;60.81
63493;BME280;49638;47.526;10.028;2023-07-20T09:55:26;91671.41;;;20.21;60.61
63493;BME280;49638;47.526;10.028;2023-07-20T09:58:26;91672.81;;;20.19;60.93
63493;BME280;49638;47.526;10.028;2023-07-20T10:01:28;91671.22;;;20.18;61.37
63493;BME280;49638;47.526;10.028;2023-07-20T10:04:29;91667.25;;;20.15;61.33
63493;BME280;49638;47.526;10.028;2023-07-20T10:07:30;91671.66;;;20.11;61.29
63493;BME280;49638;47.526;10.028;2023-07-20T10:10:33;91659.72;;;20.03;61.20
63493;BME280;49638;47.526;10.028;2023-07-20T10:13:38;91667.09;;;19.98;60.56
63493;BME280;49638;47.526;10.028;2023-07-20T10:16:43;91661.44;;;19.85;60.32
63493;BME280;49638;47.526;10.028;2023-07-20T10:19:50;91672.97;;;19.86;61.31
63493;BME280;49638;47.526;10.028;2023-07-20T10:22:53;91666.94;;;19.80;61.12
63493;BME280;49638;47.526;10.028;2023-07-20T10:25:54;91665.94;;;19.76;61.26
63493;BME280;49638;47.526;10.028;2023-07-20T10:28:55;91663.56;;;19.75;61.53
63493;BME280;49638;47.526;10.028;2023-07-20T10:31:57;91655.19;;;19.76;61.70
63493;BME280;49638;47.526;10.028;2023-07-20T10:34:57;91659.09;;;19.84;62.02
63493;BME280;49638;47.526;10.028;2023-07-20T10:38:01;91643.88;;;19.79;61.75
63493;BME280;49638;47.526;10.028;2023-07-20T10:41:02;91654.69;;;19.88;61.67
63493;BME280;49638;47.526;10.028;2023-07-20T10:44:03;91650.63;;;19.91;61.60
63493;BME280;49638;47.526;10.028;2023-07-20T10:47:13;91647.13;;;19.90;61.29
63493;BME280;49638;47.526;10.028;2023-07-20T10:50:13;91651.50;;;19.86;61.68
63493;BME280;49638;47.526;10.028;2023-07-20T10:53:15;91648.13;;;19.94;61.78
63493;BME280;49638;47.526;10.028;2023-07-20T10:56:20;91646.44;;;19.98;61.29
63493;BME280;49638;47.526;10.028;2023-07-20T11:02:24;91642.75;;;20.08;61.93
63493;BME280;49638;47.526;10.028;2023-07-20T11:05:38;91640.25;;;20.12;60.65
63493;BME280;49638;47.526;10.028;2023-07-20T11:08:41;91642.13;;;20.11;61.64
63493;BME280;49638;47.526;10.028;2023-07-20T11:11:48;91633.44;;;20.14;60.01
63493;BME280;49638;47.526;10.028;2023-07-20T11:14:56;91632.38;;;20.15;60.13
63493;BME280;49638;47.526;10.028;2023-07-20T11:18:11;91632.84;;;20.17;60.56
63493;BME280;49638;47.526;10.028;2023-07-20T11:21:11;91623.63;;;20.09;61.49
63493;BME280;49638;47.526;10.028;2023-07-20T11:24:12;91628.72;;;20.11;61.66
63493;BME280;49638;47.526;10.028;2023-07-20T11:27:13;91618.16;;;20.15;61.86
63493;BME280;49638;47.526;10.028;2023-07-20T11:30:16;91619.75;;;20.16;61.44
63493;BME280;49638;47.526;10.028;2023-07-20T11:33:16;91627.38;;;20.22;62.06
63493;BME280;49638;47.526;10.028;2023-07-20T11:36:17;91617.44;;;20.23;62.30
63493;BME280;49638;47.526;10.028;2023-07-20T11:39:19;91618.22;;;20.23;62.35
63493;BME280;49638;47.526;10.028;2023-07-20T11:42:19;91610.97;;;20.24;62.48
63493;BME280;49638;47.526;10.028;2023-07-20T11:45:20;91602.25;;;20.18;62.08
63493;BME280;49638;47.526;10.028;2023-07-20T11:48:20;91611.75;;;20.24;61.78
63493;BME280;49638;47.526;10.028;2023-07-20T11:51:20;91604.19;;;20.26;61.70
63493;BME280;49638;47.526;10.028;2023-07-20T11:54:21;91598.66;;;20.23;61.81
63493;BME280;49638;47.526;10.028;2023-07-20T11:57:21;91595.66;;;20.24;61.92
63493;BME280;49638;47.526;10.028;2023-07-20T12:00:24;91597.72;;;20.27;62.21
63493;BME280;49638;47.526;10.028;2023-07-20T12:03:24;91591.47;;;20.32;61.91
63493;BME280;49638;47.526;10.028;2023-07-20T12:06:27;91583.88;;;20.34;61.98
63493;BME280;49638;47.526;10.028;2023-07-20T12:09:27;91590.28;;;20.47;61.36
63493;BME280;49638;47.526;10.028;2023-07-20T12:12:28;91595.66;;;20.47;60.93
63493;BME280;49638;47.526;10.028;2023-07-20T12:15:28;91581.44;;;20.46;60.72
63493;BME280;49638;47.526;10.028;2023-07-20T12:18:35;91585.31;;;20.54;60.35
63493;BME280;49638;47.526;10.028;2023-07-20T12:21:37;91582.50;;;20.59;61.22
63493;BME280;49638;47.526;10.028;2023-07-20T12:24:38;91587.88;;;20.59;61.03
63493;BME280;49638;47.526;10.028;2023-07-20T12:27:38;91571.88;;;20.54;61.09
63493;BME280;49638;47.526;10.028;2023-07-20T12:30:39;91573.50;;;20.55;60.75
63493;BME280;49638;47.526;10.028;2023-07-20T12:33:40;91575.06;;;20.56;60.64
63493;BME280;49638;47.526;10.028;2023-07-20T12:36:40;91570.47;;;20.57;60.36
63493;BME280;49638;47.526;10.028;2023-07-20T12:39:40;91558.63;;;20.58;60.34
63493;BME280;49638;47.526;10.028;2023-07-20T12:42:44;91566.88;;;20.61;60.12
63493;BME280;49638;47.526;10.028;2023-07-20T12:45:45;91570.22;;;20.67;60.16
63493;BME280;49638;47.526;10.028;2023-07-20T12:48:45;91558.69;;;20.66;59.96
63493;BME280;49638;47.526;10.028;2023-07-20T12:51:45;91552.09;;;20.72;59.79
63493;BME280;49638;47.526;10.028;2023-07-20T12:54:45;91552.78;;;20.87;60.01
63493;BME280;49638;47.526;10.028;2023-07-20T12:57:46;91554.88;;;20.98;60.14
63493;BME280;49638;47.526;10.028;2023-07-20T13:00:47;91550.34;;;21.08;59.61
63493;BME280;49638;47.526;10.028;2023-07-20T13:03:47;91550.50;;;21.11;59.84
63493;BME280;49638;47.526;10.028;2023-07-20T13:06:47;91554.94;;;21.16;59.99
63493;BME280;49638;47.526;10.028;2023-07-20T13:09:47;91542.78;;;21.18;59.89
63493;BME280;49638;47.526;10.028;2023-07-20T13:12:48;91540.59;;;21.20;59.69
63493;BME280;49638;47.526;10.028;2023-07-20T13:15:48;91540.25;;;21.22;59.20
63493;BME280;49638;47.526;10.028;2023-07-20T13:18:50;91534.09;;;21.21;59.04
63493;BME280;49638;47.526;10.028;2023-07-20T13:21:50;91527.78;;;21.26;58.91
63493;BME280;49638;47.526;10.028;2023-07-20T13:24:50;91535.03;;;21.25;58.34
63493;BME280;49638;47.526;10.028;2023-07-20T13:27:51;91523.03;;;21.23;58.57
63493;BME280;49638;47.526;10.028;2023-07-20T13:30:51;91525.56;;;21.28;58.61
63493;BME280;49638;47.526;10.028;2023-07-20T13:33:51;91524.94;;;21.31;58.81
63493;BME280;49638;47.526;10.028;2023-07-20T13:36:53;91515.78;;;21.32;58.88
63493;BME280;49638;47.526;10.028;2023-07-20T13:39:54;91528.78;;;21.39;58.74
63493;BME280;49638;47.526;10.028;2023-07-20T13:42:54;91510.59;;;21.36;58.69
63493;BME280;49638;47.526;10.028;2023-07-20T13:45:54;91513.44;;;21.39;58.27
63493;BME280;49638;47.526;10.028;2023-07-20T13:48:55;91522.00;;;21.41;58.04
63493;BME280;49638;47.526;10.028;2023-07-20T13:51:55;91512.53;;;21.44;57.88
63493;BME280;49638;47.526;10.028;2023-07-20T13:54:56;91507.47;;;21.51;58.18
63493;BME280;49638;47.526;10.028;2023-07-20T13:57:56;91501.63;;;21.58;57.86
63493;BME280;49638;47.526;10.028;2023-07-20T14:00:56;91494.97;;;21.55;57.62
63493;BME280;49638;47.526;10.028;2023-07-20T14:03:57;91485.31;;;21.54;57.85
63493;BME280;49638;47.526;10.028;2023-07-20T14:06:57;91484.22;;;21.55;57.96
63493;BME280;49638;47.526;10.028;2023-07-20T14:09:57;91487.84;;;21.59;58.27
63493;BME280;49638;47.526;10.028;2023-07-20T14:12:59;91485.66;;;21.61;58.15
63493;BME280;49638;47.526;10.028;2023-07-20T14:15:59;91478.38;;;21.62;57.81
63493;BME280;49638;47.526;10.028;2023-07-20T14:18:59;91487.88;;;21.68;57.84
63493;BME280;49638;47.526;10.028;2023-07-20T14:22:00;91490.72;;;21.71;57.93
63493;BME280;49638;47.526;10.028;2023-07-20T14:25:00;91484.69;;;21.75;57.91
63493;BME280;49638;47.526;10.028;2023-07-20T14:28:00;91484.06;;;21.78;57.73
63493;BME280;49638;47.526;10.028;2023-07-20T14:31:01;91482.31;;;21.82;58.10
63493;BME280;49638;47.526;10.028;2023-07-20T14:34:01;91478.22;;;21.84;57.85
63493;BME280;49638;47.526;10.028;2023-07-20T14:37:01;91464.75;;;21.76;57.67
63493;BME280;49638;47.526;10.028;2023-07-20T14:40:02;91481.69;;;21.85;57.81
63493;BME280;49638;47.526;10.028;2023-07-20T14:43:05;91476.94;;;21.82;57.60
63493;BME280;49638;47.526;10.028;2023-07-20T14:46:05;91478.06;;;21.81;57.54
63493;BME280;49638;47.526;10.028;2023-07-20T14:49:06;91473.31;;;21.78;57.39
63493;BME280;49638;47.526;10.028;2023-07-20T14:52:06;91479.47;;;21.78;57.70
63493;BME280;49638;47.526;10.028;2023-07-20T14:55:06;91482.94;;;21.79;57.35
63493;BME280;49638;47.526;10.028;2023-07-20T14:58:07;91485.00;;;21.82;57.57
63493;BME280;49638;47.526;10.028;2023-07-20T15:01:07;91477.72;;;21.82;57.25
63493;BME280;49638;47.526;10.028;2023-07-20T15:04:07;91479.16;;;21.80;56.99
63493;BME280;49638;47.526;10.028;2023-07-20T15:07:08;91474.88;;;21.79;56.69
63493;BME280;49638;47.526;10.028;2023-07-20T15:10:08;91461.28;;;21.75;56.34
63493;BME280;49638;47.526;10.028;2023-07-20T15:13:09;91459.03;;;21.77;56.51
63493;BME280;49638;47.526;10.028;2023-07-20T15:16:09;91470.94;;;21.85;56.85
63493;BME280;49638;47.526;10.028;2023-07-20T15:19:11;91475.81;;;21.83;56.73
63493;BME280;49638;47.526;10.028;2023-07-20T15:22:13;91467.78;;;21.74;56.09
63493;BME280;49638;47.526;10.028;2023-07-20T15:25:13;91468.56;;;21.75;55.92
63493;BME280;49638;47.526;10.028;2023-07-20T15:28:14;91470.13;;;21.76;55.70
63493;BME280;49638;47.526;10.028;2023-07-20T15:31:14;91454.47;;;21.69;55.78
63493;BME280;49638;47.526;10.028;2023-07-20T15:34:14;91462.69;;;21.72;55.28
63493;BME280;49638;47.526;10.028;2023-07-20T15:37:15;91465.22;;;21.69;55.64
63493;BME280;49638;47.526;10.028;2023-07-20T15:40:15;91461.25;;;21.66;55.55
63493;BME280;49638;47.526;10.028;2023-07-20T15:43:16;91465.41;;;21.64;55.63
63493;BME280;49638;47.526;10.028;2023-07-20T15:49:21;91454.16;;;21.62;55.66
63493;BME280;49638;47.526;10.028;2023-07-20T15:52:21;91456.69;;;21.58;55.51
63493;BME280;49638;47.526;10.028;2023-07-20T15:55:23;91452.44;;;21.57;55.66
63493;BME280;49638;47.526;10.028;2023-07-20T15:58:23;91454.63;;;21.55;55.60
63493;BME280;49638;47.526;10.028;2023-07-20T16:01:23;91438.00;;;21.53;55.71